sensor_id;sensor_type;location;lat;lon;timestamp;P1;durP1;ratioP1;P2;durP2;ratioP2
2884;SDS011;54691;48.262;11.586;2022-07-29T00:05:35;3.87;;;0.95;;
2884;SDS011;54691;48.262;11.586;2022-07-29T00:12:33;0.50;;;0.42;;
2884;SDS011;54691;48.262;11.586;2022-07-29T00:19:34;2.75;;;0.90;;
2884;SDS011;54691;48.262;11.586;2022-07-29T00:26:52;0.85;;;0.60;;
2884;SDS011;54691;48.262;11.586;2022-07-29T00:33:49;2.90;;;0.95;;
2884;SDS011;54691;48.262;11.586;2022-07-29T00:40:47;3.52;;;0.80;;
2884;SDS011;54691;48.262;11.586;2022-07-29T00:47:44;2.05;;;0.98;;
2884;SDS011;54691;48.262;11.586;2022-07-29T00:54:41;2.37;;;0.62;;
2884;SDS011;54691;48.262;11.586;2022-07-29T01:01:38;1.90;;;0.90;;
2884;SDS011;54691;48.262;11.586;2022-07-29T01:08:35;1.12;;;1.02;;
2884;SDS011;54691;48.262;11.586;2022-07-29T01:15:37;3.80;;;1.00;;
2884;SDS011;54691;48.262;11.586;2022-07-29T01:29:34;1.35;;;0.90;;
2884;SDS011;54691;48.262;11.586;2022-07-29T01:36:33;1.90;;;0.98;;
2884;SDS011;54691;48.262;11.586;2022-07-29T01:43:34;1.95;;;0.93;;
2884;SDS011;54691;48.262;11.586;2022-07-29T01:50:36;2.72;;;0.80;;
2884;SDS011;54691;48.262;11.586;2022-07-29T01:57:33;3.10;;;1.00;;
2884;SDS011;54691;48.262;11.586;2022-07-29T02:04:30;0.93;;;0.88;;
2884;SDS011;54691;48.262;11.586;2022-07-29T02:11:29;2.25;;;1.20;;
2884;SDS011;54691;48.262;11.586;2022-07-29T02:18:27;1.62;;;0.98;;
2884;SDS011;54691;48.262;11.586;2022-07-29T02:25:26;1.77;;;1.22;;
2884;SDS011;54691;48.262;11.586;2022-07-29T02:32:23;3.98;;;1.12;;
2884;SDS011;54691;48.262;11.586;2022-07-29T02:39:22;4.80;;;1.55;;
2884;SDS011;54691;48.262;11.586;2022-07-29T02:46:20;3.80;;;1.12;;
2884;SDS011;54691;48.262;11.586;2022-07-29T02:53:19;1.30;;;1.00;;
2884;SDS011;54691;48.262;11.586;2022-07-29T03:00:18;2.47;;;1.37;;
2884;SDS011;54691;48.262;11.586;2022-07-29T03:07:18;1.02;;;0.80;;
2884;SDS011;54691;48.262;11.586;2022-07-29T03:14:16;2.17;;;1.37;;
2884;SDS011;54691;48.262;11.586;2022-07-29T03:21:13;1.65;;;1.32;;
2884;SDS011;54691;48.262;11.586;2022-07-29T03:28:10;2.65;;;1.40;;
2884;SDS011;54691;48.262;11.586;2022-07-29T03:35:08;3.30;;;1.50;;
2884;SDS011;54691;48.262;11.586;2022-07-29T03:42:06;2.55;;;1.50;;
2884;SDS011;54691;48.262;11.586;2022-07-29T03:49:04;3.30;;;1.57;;
2884;SDS011;54691;48.262;11.586;2022-07-29T03:56:03;2.72;;;1.45;;
2884;SDS011;54691;48.262;11.586;2022-07-29T04:03:02;1.90;;;1.25;;
2884;SDS011;54691;48.262;11.586;2022-07-29T04:10:00;1.80;;;1.37;;
2884;SDS011;54691;48.262;11.586;2022-07-29T04:16:57;2.33;;;1.42;;
2884;SDS011;54691;48.262;11.586;2022-07-29T04:23:54;2.22;;;1.50;;
2884;SDS011;54691;48.262;11.586;2022-07-29T04:30:51;2.77;;;1.50;;
2884;SDS011;54691;48.262;11.586;2022-07-29T04:37:48;1.67;;;1.37;;
2884;SDS011;54691;48.262;11.586;2022-07-29T04:44:45;2.27;;;1.45;;
2884;SDS011;54691;48.262;11.586;2022-07-29T04:51:42;4.42;;;1.98;;
2884;SDS011;54691;48.262;11.586;2022-07-29T04:58:39;7.20;;;1.70;;
2884;SDS011;54691;48.262;11.586;2022-07-29T05:05:36;1.60;;;1.25;;
2884;SDS011;54691;48.262;11.586;2022-07-29T05:12:33;2.12;;;1.55;;
2884;SDS011;54691;48.262;11.586;2022-07-29T05:19:30;2.85;;;1.62;;
2884;SDS011;54691;48.262;11.586;2022-07-29T05:26:30;2.55;;;1.60;;
2884;SDS011;54691;48.262;11.586;2022-07-29T05:33:27;1.12;;;1.00;;
2884;SDS011;54691;48.262;11.586;2022-07-29T05:40:24;2.55;;;1.37;;
2884;SDS011;54691;48.262;11.586;2022-07-29T05:47:22;3.58;;;1.10;;
2884;SDS011;54691;48.262;11.586;2022-07-29T05:54:19;3.90;;;1.20;;
2884;SDS011;54691;48.262;11.586;2022-07-29T06:01:16;5.05;;;1.30;;
2884;SDS011;54691;48.262;11.586;2022-07-29T06:08:13;5.75;;;1.10;;
2884;SDS011;54691;48.262;11.586;2022-07-29T06:15:13;2.35;;;1.05;;
2884;SDS011;54691;48.262;11.586;2022-07-29T06:22:11;1.50;;;0.85;;
2884;SDS011;54691;48.262;11.586;2022-07-29T06:29:10;1.67;;;0.90;;
2884;SDS011;54691;48.262;11.586;2022-07-29T06:36:07;2.20;;;0.90;;
2884;SDS011;54691;48.262;11.586;2022-07-29T06:43:04;0.78;;;0.70;;
2884;SDS011;54691;48.262;11.586;2022-07-29T06:50:01;0.95;;;0.82;;
2884;SDS011;54691;48.262;11.586;2022-07-29T06:56:58;2.02;;;1.17;;
2884;SDS011;54691;48.262;11.586;2022-07-29T07:03:56;0.90;;;0.60;;
2884;SDS011;54691;48.262;11.586;2022-07-29T07:10:53;4.37;;;0.90;;
2884;SDS011;54691;48.262;11.586;2022-07-29T07:17:50;3.37;;;0.70;;
2884;SDS011;54691;48.262;11.586;2022-07-29T07:24:47;2.27;;;0.90;;
2884;SDS011;54691;48.262;11.586;2022-07-29T07:31:45;2.42;;;0.68;;
2884;SDS011;54691;48.262;11.586;2022-07-29T07:38:42;0.70;;;0.65;;
2884;SDS011;54691;48.262;11.586;2022-07-29T07:45:40;1.85;;;0.80;;
2884;SDS011;54691;48.262;11.586;2022-07-29T07:52:47;0.60;;;0.60;;
2884;SDS011;54691;48.262;11.586;2022-07-29T07:56:16;2.50;;;0.75;;
2884;SDS011;54691;48.262;11.586;2022-07-29T08:03:13;3.45;;;0.60;;
2884;SDS011;54691;48.262;11.586;2022-07-29T08:10:10;1.30;;;0.75;;
2884;SDS011;54691;48.262;11.586;2022-07-29T08:17:08;0.85;;;0.82;;
2884;SDS011;54691;48.262;11.586;2022-07-29T08:24:06;1.05;;;0.60;;
2884;SDS011;54691;48.262;11.586;2022-07-29T08:27:53;1.43;;;0.63;;
2884;SDS011;54691;48.262;11.586;2022-07-29T08:34:50;1.15;;;0.60;;
2884;SDS011;54691;48.262;11.586;2022-07-29T08:41:48;4.95;;;0.75;;
2884;SDS011;54691;48.262;11.586;2022-07-29T08:48:46;1.42;;;0.80;;
2884;SDS011;54691;48.262;11.586;2022-07-29T08:55:44;0.80;;;0.70;;
2884;SDS011;54691;48.262;11.586;2022-07-29T09:06:51;1.20;;;0.85;;
2884;SDS011;54691;48.262;11.586;2022-07-29T09:13:48;2.87;;;0.95;;
2884;SDS011;54691;48.262;11.586;2022-07-29T09:17:44;2.77;;;0.80;;
2884;SDS011;54691;48.262;11.586;2022-07-29T09:21:22;1.17;;;0.60;;
2884;SDS011;54691;48.262;11.586;2022-07-29T09:25:10;1.32;;;0.80;;
2884;SDS011;54691;48.262;11.586;2022-07-29T09:32:35;1.45;;;0.80;;
2884;SDS011;54691;48.262;11.586;2022-07-29T09:39:53;2.30;;;1.45;;
2884;SDS011;54691;48.262;11.586;2022-07-29T09:43:57;2.12;;;0.75;;
2884;SDS011;54691;48.262;11.586;2022-07-29T09:47:52;1.02;;;0.70;;
2884;SDS011;54691;48.262;11.586;2022-07-29T09:51:41;2.70;;;1.30;;
2884;SDS011;54691;48.262;11.586;2022-07-29T09:58:43;1.00;;;0.90;;
2884;SDS011;54691;48.262;11.586;2022-07-29T10:02:21;2.05;;;1.20;;
2884;SDS011;54691;48.262;11.586;2022-07-29T10:06:17;1.20;;;0.90;;
2884;SDS011;54691;48.262;11.586;2022-07-29T10:39:22;1.45;;;1.10;;
2884;SDS011;54691;48.262;11.586;2022-07-29T10:42:52;1.90;;;1.20;;
2884;SDS011;54691;48.262;11.586;2022-07-29T10:57:28;3.85;;;1.12;;
2884;SDS011;54691;48.262;11.586;2022-07-29T11:17:18;2.60;;;1.10;;
2884;SDS011;54691;48.262;11.586;2022-07-29T11:24:25;1.67;;;0.93;;
2884;SDS011;54691;48.262;11.586;2022-07-29T11:38:51;2.85;;;0.85;;
2884;SDS011;54691;48.262;11.586;2022-07-29T11:56:54;3.20;;;1.00;;
2884;SDS011;54691;48.262;11.586;2022-07-29T12:07:38;2.80;;;1.10;;
2884;SDS011;54691;48.262;11.586;2022-07-29T12:11:58;11.22;;;1.70;;
2884;SDS011;54691;48.262;11.586;2022-07-29T12:16:20;1.87;;;1.05;;
2884;SDS011;54691;48.262;11.586;2022-07-29T12:19:59;3.37;;;1.02;;
2884;SDS011;54691;48.262;11.586;2022-07-29T12:24:17;2.15;;;1.10;;
2884;SDS011;54691;48.262;11.586;2022-07-29T12:28:00;0.62;;;0.62;;
2884;SDS011;54691;48.262;11.586;2022-07-29T12:31:44;3.05;;;1.00;;
2884;SDS011;54691;48.262;11.586;2022-07-29T12:42:39;2.10;;;1.10;;
2884;SDS011;54691;48.262;11.586;2022-07-29T12:46:31;4.12;;;0.90;;
2884;SDS011;54691;48.262;11.586;2022-07-29T12:50:13;2.27;;;0.80;;
2884;SDS011;54691;48.262;11.586;2022-07-29T12:57:50;0.95;;;0.75;;
2884;SDS011;54691;48.262;11.586;2022-07-29T13:05:14;6.78;;;1.00;;
2884;SDS011;54691;48.262;11.586;2022-07-29T13:09:16;3.33;;;1.02;;
2884;SDS011;54691;48.262;11.586;2022-07-29T13:21:15;1.60;;;0.93;;
2884;SDS011;54691;48.262;11.586;2022-07-29T13:25:01;1.15;;;0.88;;
2884;SDS011;54691;48.262;11.586;2022-07-29T13:37:02;1.75;;;1.20;;
2884;SDS011;54691;48.262;11.586;2022-07-29T13:44:02;1.87;;;0.90;;
2884;SDS011;54691;48.262;11.586;2022-07-29T13:50:59;1.55;;;0.88;;
2884;SDS011;54691;48.262;11.586;2022-07-29T13:57:56;2.60;;;0.95;;
2884;SDS011;54691;48.262;11.586;2022-07-29T14:04:55;2.27;;;0.85;;
2884;SDS011;54691;48.262;11.586;2022-07-29T14:11:52;1.10;;;0.80;;
2884;SDS011;54691;48.262;11.586;2022-07-29T14:18:50;1.25;;;0.80;;
2884;SDS011;54691;48.262;11.586;2022-07-29T14:25:47;1.55;;;0.98;;
2884;SDS011;54691;48.262;11.586;2022-07-29T14:32:44;2.65;;;0.80;;
2884;SDS011;54691;48.262;11.586;2022-07-29T14:39:42;1.12;;;0.93;;
2884;SDS011;54691;48.262;11.586;2022-07-29T14:46:39;3.37;;;0.95;;
2884;SDS011;54691;48.262;11.586;2022-07-29T14:53:36;1.87;;;0.90;;
2884;SDS011;54691;48.262;11.586;2022-07-29T15:00:33;1.07;;;0.90;;
2884;SDS011;54691;48.262;11.586;2022-07-29T15:07:32;1.22;;;0.80;;
2884;SDS011;54691;48.262;11.586;2022-07-29T15:14:29;1.62;;;0.80;;
2884;SDS011;54691;48.262;11.586;2022-07-29T15:21:27;1.62;;;0.90;;
2884;SDS011;54691;48.262;11.586;2022-07-29T15:28:24;2.40;;;0.95;;
2884;SDS011;54691;48.262;11.586;2022-07-29T15:35:21;8.93;;;1.20;;
2884;SDS011;54691;48.262;11.586;2022-07-29T15:42:18;1.50;;;1.00;;
2884;SDS011;54691;48.262;11.586;2022-07-29T15:49:34;9.67;;;1.00;;
2884;SDS011;54691;48.262;11.586;2022-07-29T15:56:32;3.90;;;1.35;;
2884;SDS011;54691;48.262;11.586;2022-07-29T16:03:29;4.45;;;1.30;;
2884;SDS011;54691;48.262;11.586;2022-07-29T16:10:26;4.45;;;1.17;;
2884;SDS011;54691;48.262;11.586;2022-07-29T16:17:24;1.55;;;1.17;;
2884;SDS011;54691;48.262;11.586;2022-07-29T16:24:22;2.08;;;1.10;;
2884;SDS011;54691;48.262;11.586;2022-07-29T16:31:20;3.95;;;1.30;;
2884;SDS011;54691;48.262;11.586;2022-07-29T16:38:18;1.27;;;0.90;;
2884;SDS011;54691;48.262;11.586;2022-07-29T16:45:17;2.75;;;1.02;;
2884;SDS011;54691;48.262;11.586;2022-07-29T16:52:16;1.57;;;1.00;;
2884;SDS011;54691;48.262;11.586;2022-07-29T16:59:14;1.85;;;1.20;;
2884;SDS011;54691;48.262;11.586;2022-07-29T17:06:14;2.12;;;1.20;;
2884;SDS011;54691;48.262;11.586;2022-07-29T17:13:10;4.53;;;1.10;;
2884;SDS011;54691;48.262;11.586;2022-07-29T17:20:08;2.10;;;1.32;;
2884;SDS011;54691;48.262;11.586;2022-07-29T17:27:05;2.98;;;1.20;;
2884;SDS011;54691;48.262;11.586;2022-07-29T17:34:02;7.10;;;1.60;;
2884;SDS011;54691;48.262;11.586;2022-07-29T17:41:01;6.42;;;1.60;;
2884;SDS011;54691;48.262;11.586;2022-07-29T17:48:00;2.10;;;1.15;;
2884;SDS011;54691;48.262;11.586;2022-07-29T17:54:57;1.67;;;0.88;;
2884;SDS011;54691;48.262;11.586;2022-07-29T18:01:54;3.47;;;0.88;;
2884;SDS011;54691;48.262;11.586;2022-07-29T18:08:51;1.37;;;0.80;;
2884;SDS011;54691;48.262;11.586;2022-07-29T18:12:20;0.80;;;0.78;;
2884;SDS011;54691;48.262;11.586;2022-07-29T18:19:22;2.70;;;1.12;;
2884;SDS011;54691;48.262;11.586;2022-07-29T18:26:19;1.85;;;0.70;;
2884;SDS011;54691;48.262;11.586;2022-07-29T18:33:16;1.37;;;0.68;;
2884;SDS011;54691;48.262;11.586;2022-07-29T18:40:14;3.20;;;0.57;;
2884;SDS011;54691;48.262;11.586;2022-07-29T18:47:14;1.90;;;0.70;;
2884;SDS011;54691;48.262;11.586;2022-07-29T18:54:11;1.85;;;0.50;;
2884;SDS011;54691;48.262;11.586;2022-07-29T19:01:11;1.22;;;0.40;;
2884;SDS011;54691;48.262;11.586;2022-07-29T19:08:09;1.10;;;0.47;;
2884;SDS011;54691;48.262;11.586;2022-07-29T19:15:10;0.65;;;0.60;;
2884;SDS011;54691;48.262;11.586;2022-07-29T19:22:07;1.95;;;0.85;;
2884;SDS011;54691;48.262;11.586;2022-07-29T19:29:05;1.07;;;0.60;;
2884;SDS011;54691;48.262;11.586;2022-07-29T19:36:02;2.42;;;1.02;;
2884;SDS011;54691;48.262;11.586;2022-07-29T19:42:59;1.17;;;0.88;;
2884;SDS011;54691;48.262;11.586;2022-07-29T19:53:30;1.92;;;1.10;;
2884;SDS011;54691;48.262;11.586;2022-07-29T20:00:27;3.02;;;1.30;;
2884;SDS011;54691;48.262;11.586;2022-07-29T20:07:25;2.95;;;1.65;;
2884;SDS011;54691;48.262;11.586;2022-07-29T20:14:22;1.80;;;1.25;;
2884;SDS011;54691;48.262;11.586;2022-07-29T20:21:19;3.27;;;1.70;;
2884;SDS011;54691;48.262;11.586;2022-07-29T20:28:16;2.15;;;1.82;;
2884;SDS011;54691;48.262;11.586;2022-07-29T20:35:13;2.87;;;1.82;;
2884;SDS011;54691;48.262;11.586;2022-07-29T20:42:13;2.80;;;2.20;;
2884;SDS011;54691;48.262;11.586;2022-07-29T20:49:10;2.90;;;1.90;;
2884;SDS011;54691;48.262;11.586;2022-07-29T20:56:07;4.03;;;1.82;;
2884;SDS011;54691;48.262;11.586;2022-07-29T21:03:06;7.28;;;1.92;;
2884;SDS011;54691;48.262;11.586;2022-07-29T21:10:03;1.95;;;1.72;;
2884;SDS011;54691;48.262;11.586;2022-07-29T21:17:08;3.15;;;2.02;;
2884;SDS011;54691;48.262;11.586;2022-07-29T21:24:02;4.47;;;1.90;;
2884;SDS011;54691;48.262;11.586;2022-07-29T21:31:17;4.00;;;2.20;;
2884;SDS011;54691;48.262;11.586;2022-07-29T21:38:17;3.98;;;2.15;;
2884;SDS011;54691;48.262;11.586;2022-07-29T21:45:14;4.15;;;1.95;;
2884;SDS011;54691;48.262;11.586;2022-07-29T21:52:11;6.22;;;2.33;;
2884;SDS011;54691;48.262;11.586;2022-07-29T21:59:08;5.95;;;2.15;;
2884;SDS011;54691;48.262;11.586;2022-07-29T22:06:05;3.52;;;1.95;;
2884;SDS011;54691;48.262;11.586;2022-07-29T22:13:02;2.80;;;1.98;;
2884;SDS011;54691;48.262;11.586;2022-07-29T22:19:59;4.90;;;1.90;;
2884;SDS011;54691;48.262;11.586;2022-07-29T22:26:56;2.22;;;1.80;;
2884;SDS011;54691;48.262;11.586;2022-07-29T22:33:53;2.37;;;1.80;;
2884;SDS011;54691;48.262;11.586;2022-07-29T22:40:50;5.65;;;2.33;;
2884;SDS011;54691;48.262;11.586;2022-07-29T22:47:48;5.35;;;2.10;;
2884;SDS011;54691;48.262;11.586;2022-07-29T22:54:47;2.08;;;1.75;;
2884;SDS011;54691;48.262;11.586;2022-07-29T23:01:44;3.98;;;1.95;;
2884;SDS011;54691;48.262;11.586;2022-07-29T23:08:42;4.15;;;1.65;;
2884;SDS011;54691;48.262;11.586;2022-07-29T23:15:39;3.40;;;2.17;;
2884;SDS011;54691;48.262;11.586;2022-07-29T23:22:37;3.35;;;2.00;;
2884;SDS011;54691;48.262;11.586;2022-07-29T23:29:34;3.98;;;1.80;;
2884;SDS011;54691;48.262;11.586;2022-07-29T23:36:31;7.85;;;1.85;;
2884;SDS011;54691;48.262;11.586;2022-07-29T23:43:28;5.10;;;2.00;;
2884;SDS011;54691;48.262;11.586;2022-07-29T23:50:25;4.45;;;1.92;;
2884;SDS011;54691;48.262;11.586;2022-07-29T23:57:21;2.92;;;1.57;;
